sensor_id;sensor_type;location;lat;lon;timestamp;P1;durP1;ratioP1;P2;durP2;ratioP2
32810;SDS011;65470;47.324;8.548;2023-02-22T00:00:24;19.30;;;13.45;;
32810;SDS011;65470;47.324;8.548;2023-02-22T00:03:00;15.55;;;13.27;;
32810;SDS011;65470;47.324;8.548;2023-02-22T00:05:27;18.00;;;13.35;;
32810;SDS011;65470;47.324;8.548;2023-02-22T00:07:55;18.23;;;13.05;;
32810;SDS011;65470;47.324;8.548;2023-02-22T00:10:22;17.33;;;13.25;;
32810;SDS011;65470;47.324;8.548;2023-02-22T00:12:49;18.90;;;13.27;;
32810;SDS011;65470;47.324;8.548;2023-02-22T00:15:17;22.17;;;14.32;;
32810;SDS011;65470;47.324;8.548;2023-02-22T00:17:47;18.17;;;13.50;;
32810;SDS011;65470;47.324;8.548;2023-02-22T00:20:14;17.98;;;14.00;;
32810;SDS011;65470;47.324;8.548;2023-02-22T00:22:44;22.77;;;14.18;;
32810;SDS011;65470;47.324;8.548;2023-02-22T00:25:26;18.20;;;13.25;;
32810;SDS011;65470;47.324;8.548;2023-02-22T00:27:52;21.95;;;14.88;;
32810;SDS011;65470;47.324;8.548;2023-02-22T00:30:22;18.23;;;13.60;;
32810;SDS011;65470;47.324;8.548;2023-02-22T00:32:50;19.80;;;12.93;;
32810;SDS011;65470;47.324;8.548;2023-02-22T00:35:17;18.80;;;13.60;;
32810;SDS011;65470;47.324;8.548;2023-02-22T00:37:48;18.98;;;13.77;;
32810;SDS011;65470;47.324;8.548;2023-02-22T00:40:19;19.70;;;13.88;;
32810;SDS011;65470;47.324;8.548;2023-02-22T00:42:47;21.98;;;13.88;;
32810;SDS011;65470;47.324;8.548;2023-02-22T00:45:17;19.10;;;13.25;;
32810;SDS011;65470;47.324;8.548;2023-02-22T00:47:48;16.02;;;13.20;;
32810;SDS011;65470;47.324;8.548;2023-02-22T00:50:14;20.23;;;14.10;;
32810;SDS011;65470;47.324;8.548;2023-02-22T00:52:40;17.20;;;13.45;;
32810;SDS011;65470;47.324;8.548;2023-02-22T00:55:07;20.52;;;14.20;;
32810;SDS011;65470;47.324;8.548;2023-02-22T00:57:35;18.27;;;14.23;;
32810;SDS011;65470;47.324;8.548;2023-02-22T01:00:02;15.75;;;13.63;;
32810;SDS011;65470;47.324;8.548;2023-02-22T01:02:36;16.17;;;13.43;;
32810;SDS011;65470;47.324;8.548;2023-02-22T01:05:03;17.40;;;13.20;;
32810;SDS011;65470;47.324;8.548;2023-02-22T01:07:30;15.45;;;13.60;;
32810;SDS011;65470;47.324;8.548;2023-02-22T01:09:55;19.17;;;13.77;;
32810;SDS011;65470;47.324;8.548;2023-02-22T01:12:21;19.05;;;14.27;;
32810;SDS011;65470;47.324;8.548;2023-02-22T01:14:47;19.58;;;13.85;;
32810;SDS011;65470;47.324;8.548;2023-02-22T01:17:13;17.30;;;13.68;;
32810;SDS011;65470;47.324;8.548;2023-02-22T01:19:38;16.63;;;13.43;;
32810;SDS011;65470;47.324;8.548;2023-02-22T01:22:06;17.77;;;13.13;;
32810;SDS011;65470;47.324;8.548;2023-02-22T01:24:32;19.05;;;13.68;;
32810;SDS011;65470;47.324;8.548;2023-02-22T01:26:58;17.58;;;13.43;;
32810;SDS011;65470;47.324;8.548;2023-02-22T01:29:25;16.73;;;12.63;;
32810;SDS011;65470;47.324;8.548;2023-02-22T01:31:52;26.15;;;14.90;;
32810;SDS011;65470;47.324;8.548;2023-02-22T01:34:20;18.33;;;13.65;;
32810;SDS011;65470;47.324;8.548;2023-02-22T01:36:46;17.38;;;13.70;;
32810;SDS011;65470;47.324;8.548;2023-02-22T01:39:12;18.75;;;12.60;;
32810;SDS011;65470;47.324;8.548;2023-02-22T01:41:38;18.15;;;13.32;;
32810;SDS011;65470;47.324;8.548;2023-02-22T01:44:20;18.42;;;14.40;;
32810;SDS011;65470;47.324;8.548;2023-02-22T01:46:52;25.00;;;13.95;;
32810;SDS011;65470;47.324;8.548;2023-02-22T01:49:19;21.52;;;13.93;;
32810;SDS011;65470;47.324;8.548;2023-02-22T01:51:47;19.88;;;14.20;;
32810;SDS011;65470;47.324;8.548;2023-02-22T01:54:24;18.13;;;13.35;;
32810;SDS011;65470;47.324;8.548;2023-02-22T01:56:58;23.20;;;14.27;;
32810;SDS011;65470;47.324;8.548;2023-02-22T01:59:26;20.65;;;13.93;;
32810;SDS011;65470;47.324;8.548;2023-02-22T02:01:57;20.48;;;13.95;;
32810;SDS011;65470;47.324;8.548;2023-02-22T02:04:23;21.25;;;16.05;;
32810;SDS011;65470;47.324;8.548;2023-02-22T02:06:50;22.42;;;14.10;;
32810;SDS011;65470;47.324;8.548;2023-02-22T02:09:20;23.85;;;14.27;;
32810;SDS011;65470;47.324;8.548;2023-02-22T02:12:08;27.85;;;15.60;;
32810;SDS011;65470;47.324;8.548;2023-02-22T02:14:36;20.05;;;14.95;;
32810;SDS011;65470;47.324;8.548;2023-02-22T02:17:06;21.58;;;15.55;;
32810;SDS011;65470;47.324;8.548;2023-02-22T02:25:22;22.85;;;16.35;;
32810;SDS011;65470;47.324;8.548;2023-02-22T02:28:30;20.02;;;15.00;;
32810;SDS011;65470;47.324;8.548;2023-02-22T02:34:04;19.92;;;14.85;;
32810;SDS011;65470;47.324;8.548;2023-02-22T02:36:48;21.25;;;15.05;;
32810;SDS011;65470;47.324;8.548;2023-02-22T02:41:41;24.95;;;15.55;;
32810;SDS011;65470;47.324;8.548;2023-02-22T02:44:12;23.25;;;15.23;;
32810;SDS011;65470;47.324;8.548;2023-02-22T02:49:20;22.83;;;14.75;;
32810;SDS011;65470;47.324;8.548;2023-02-22T02:51:51;22.25;;;15.85;;
32810;SDS011;65470;47.324;8.548;2023-02-22T02:54:20;22.15;;;15.35;;
32810;SDS011;65470;47.324;8.548;2023-02-22T02:56:47;23.90;;;14.85;;
32810;SDS011;65470;47.324;8.548;2023-02-22T02:59:26;23.17;;;16.65;;
32810;SDS011;65470;47.324;8.548;2023-02-22T03:08:05;21.42;;;14.88;;
32810;SDS011;65470;47.324;8.548;2023-02-22T03:13:29;22.88;;;15.43;;
32810;SDS011;65470;47.324;8.548;2023-02-22T03:18:50;24.98;;;15.55;;
32810;SDS011;65470;47.324;8.548;2023-02-22T03:21:52;19.63;;;14.73;;
32810;SDS011;65470;47.324;8.548;2023-02-22T03:28:06;25.20;;;15.52;;
32810;SDS011;65470;47.324;8.548;2023-02-22T03:30:15;19.02;;;14.95;;
32810;SDS011;65470;47.324;8.548;2023-02-22T03:32:48;25.13;;;16.17;;
32810;SDS011;65470;47.324;8.548;2023-02-22T03:35:19;23.67;;;15.60;;
32810;SDS011;65470;47.324;8.548;2023-02-22T03:37:49;26.33;;;17.13;;
32810;SDS011;65470;47.324;8.548;2023-02-22T03:40:27;19.85;;;15.15;;
32810;SDS011;65470;47.324;8.548;2023-02-22T03:43:04;23.23;;;16.42;;
32810;SDS011;65470;47.324;8.548;2023-02-22T03:45:33;23.75;;;15.65;;
32810;SDS011;65470;47.324;8.548;2023-02-22T03:48:05;24.65;;;16.15;;
32810;SDS011;65470;47.324;8.548;2023-02-22T03:50:39;19.65;;;16.40;;
32810;SDS011;65470;47.324;8.548;2023-02-22T03:53:05;22.10;;;15.93;;
32810;SDS011;65470;47.324;8.548;2023-02-22T03:55:31;26.92;;;16.38;;
32810;SDS011;65470;47.324;8.548;2023-02-22T03:57:58;27.02;;;16.75;;
32810;SDS011;65470;47.324;8.548;2023-02-22T04:00:28;23.77;;;15.82;;
32810;SDS011;65470;47.324;8.548;2023-02-22T04:02:55;23.13;;;15.98;;
32810;SDS011;65470;47.324;8.548;2023-02-22T04:05:21;22.58;;;16.48;;
32810;SDS011;65470;47.324;8.548;2023-02-22T04:07:48;22.05;;;15.88;;
32810;SDS011;65470;47.324;8.548;2023-02-22T04:10:16;19.50;;;15.27;;
32810;SDS011;65470;47.324;8.548;2023-02-22T04:12:41;21.80;;;15.70;;
32810;SDS011;65470;47.324;8.548;2023-02-22T04:15:07;19.50;;;14.65;;
32810;SDS011;65470;47.324;8.548;2023-02-22T04:17:35;20.33;;;15.75;;
32810;SDS011;65470;47.324;8.548;2023-02-22T04:20:01;24.27;;;16.50;;
32810;SDS011;65470;47.324;8.548;2023-02-22T04:22:27;22.33;;;15.15;;
32810;SDS011;65470;47.324;8.548;2023-02-22T04:24:53;18.80;;;15.35;;
32810;SDS011;65470;47.324;8.548;2023-02-22T04:27:19;22.73;;;16.35;;
32810;SDS011;65470;47.324;8.548;2023-02-22T04:29:44;21.85;;;15.63;;
32810;SDS011;65470;47.324;8.548;2023-02-22T04:32:10;26.73;;;15.93;;
32810;SDS011;65470;47.324;8.548;2023-02-22T04:34:36;20.33;;;16.05;;
32810;SDS011;65470;47.324;8.548;2023-02-22T04:37:01;20.23;;;16.13;;
32810;SDS011;65470;47.324;8.548;2023-02-22T04:39:27;24.65;;;16.83;;
32810;SDS011;65470;47.324;8.548;2023-02-22T04:41:53;21.05;;;16.00;;
32810;SDS011;65470;47.324;8.548;2023-02-22T04:44:18;24.00;;;16.02;;
32810;SDS011;65470;47.324;8.548;2023-02-22T04:46:44;20.73;;;15.77;;
32810;SDS011;65470;47.324;8.548;2023-02-22T04:49:10;22.95;;;15.27;;
32810;SDS011;65470;47.324;8.548;2023-02-22T04:51:36;21.27;;;14.80;;
32810;SDS011;65470;47.324;8.548;2023-02-22T04:54:02;20.30;;;15.35;;
32810;SDS011;65470;47.324;8.548;2023-02-22T04:56:27;25.65;;;16.42;;
32810;SDS011;65470;47.324;8.548;2023-02-22T04:58:53;21.10;;;15.43;;
32810;SDS011;65470;47.324;8.548;2023-02-22T05:01:19;24.65;;;15.48;;
32810;SDS011;65470;47.324;8.548;2023-02-22T05:03:44;24.13;;;15.27;;
32810;SDS011;65470;47.324;8.548;2023-02-22T05:06:10;27.17;;;15.77;;
32810;SDS011;65470;47.324;8.548;2023-02-22T05:08:38;21.27;;;15.98;;
32810;SDS011;65470;47.324;8.548;2023-02-22T05:11:04;30.30;;;17.33;;
32810;SDS011;65470;47.324;8.548;2023-02-22T05:13:30;23.13;;;16.17;;
32810;SDS011;65470;47.324;8.548;2023-02-22T05:15:56;22.15;;;17.65;;
32810;SDS011;65470;47.324;8.548;2023-02-22T05:18:21;18.88;;;15.18;;
32810;SDS011;65470;47.324;8.548;2023-02-22T05:20:47;26.40;;;15.88;;
32810;SDS011;65470;47.324;8.548;2023-02-22T05:23:13;23.13;;;15.38;;
32810;SDS011;65470;47.324;8.548;2023-02-22T05:25:39;22.55;;;14.60;;
32810;SDS011;65470;47.324;8.548;2023-02-22T05:28:07;26.20;;;16.33;;
32810;SDS011;65470;47.324;8.548;2023-02-22T05:30:36;22.90;;;16.05;;
32810;SDS011;65470;47.324;8.548;2023-02-22T05:33:06;20.83;;;15.85;;
32810;SDS011;65470;47.324;8.548;2023-02-22T05:35:32;27.38;;;15.38;;
32810;SDS011;65470;47.324;8.548;2023-02-22T05:37:58;22.98;;;15.77;;
32810;SDS011;65470;47.324;8.548;2023-02-22T05:40:27;20.80;;;15.02;;
32810;SDS011;65470;47.324;8.548;2023-02-22T05:42:54;24.65;;;16.17;;
32810;SDS011;65470;47.324;8.548;2023-02-22T05:45:21;19.33;;;15.05;;
32810;SDS011;65470;47.324;8.548;2023-02-22T05:47:49;18.92;;;15.07;;
32810;SDS011;65470;47.324;8.548;2023-02-22T05:50:15;20.60;;;15.55;;
32810;SDS011;65470;47.324;8.548;2023-02-22T05:52:41;18.30;;;14.07;;
32810;SDS011;65470;47.324;8.548;2023-02-22T05:55:08;18.67;;;14.15;;
32810;SDS011;65470;47.324;8.548;2023-02-22T05:57:34;19.77;;;14.50;;
32810;SDS011;65470;47.324;8.548;2023-02-22T06:00:01;19.27;;;14.48;;
32810;SDS011;65470;47.324;8.548;2023-02-22T06:02:29;22.02;;;14.30;;
32810;SDS011;65470;47.324;8.548;2023-02-22T06:04:54;26.05;;;15.10;;
32810;SDS011;65470;47.324;8.548;2023-02-22T06:07:20;21.63;;;15.60;;
32810;SDS011;65470;47.324;8.548;2023-02-22T06:09:46;20.10;;;16.05;;
32810;SDS011;65470;47.324;8.548;2023-02-22T06:12:12;19.83;;;15.48;;
32810;SDS011;65470;47.324;8.548;2023-02-22T06:14:38;22.13;;;16.40;;
32810;SDS011;65470;47.324;8.548;2023-02-22T06:17:05;20.52;;;15.32;;
32810;SDS011;65470;47.324;8.548;2023-02-22T06:19:30;21.00;;;15.55;;
32810;SDS011;65470;47.324;8.548;2023-02-22T06:21:56;25.35;;;15.40;;
32810;SDS011;65470;47.324;8.548;2023-02-22T06:24:24;23.25;;;15.98;;
32810;SDS011;65470;47.324;8.548;2023-02-22T06:26:56;20.52;;;15.52;;
32810;SDS011;65470;47.324;8.548;2023-02-22T06:29:23;25.33;;;15.98;;
32810;SDS011;65470;47.324;8.548;2023-02-22T06:31:50;23.83;;;15.65;;
32810;SDS011;65470;47.324;8.548;2023-02-22T06:34:16;23.75;;;16.02;;
32810;SDS011;65470;47.324;8.548;2023-02-22T06:36:42;26.92;;;15.30;;
32810;SDS011;65470;47.324;8.548;2023-02-22T06:39:08;31.63;;;17.00;;
32810;SDS011;65470;47.324;8.548;2023-02-22T06:41:37;25.92;;;17.35;;
32810;SDS011;65470;47.324;8.548;2023-02-22T06:44:04;21.55;;;16.17;;
32810;SDS011;65470;47.324;8.548;2023-02-22T06:46:30;47.38;;;18.33;;
32810;SDS011;65470;47.324;8.548;2023-02-22T06:48:55;55.55;;;19.08;;
32810;SDS011;65470;47.324;8.548;2023-02-22T06:51:23;66.97;;;20.75;;
32810;SDS011;65470;47.324;8.548;2023-02-22T06:53:52;57.10;;;18.52;;
32810;SDS011;65470;47.324;8.548;2023-02-22T06:56:18;35.60;;;15.93;;
32810;SDS011;65470;47.324;8.548;2023-02-22T06:58:44;33.28;;;16.33;;
32810;SDS011;65470;47.324;8.548;2023-02-22T07:01:10;43.30;;;16.10;;
32810;SDS011;65470;47.324;8.548;2023-02-22T07:03:36;30.88;;;17.63;;
32810;SDS011;65470;47.324;8.548;2023-02-22T07:06:02;39.38;;;17.83;;
32810;SDS011;65470;47.324;8.548;2023-02-22T07:08:28;31.25;;;16.02;;
32810;SDS011;65470;47.324;8.548;2023-02-22T07:10:54;25.05;;;15.02;;
32810;SDS011;65470;47.324;8.548;2023-02-22T07:13:19;32.35;;;16.40;;
32810;SDS011;65470;47.324;8.548;2023-02-22T07:15:45;27.38;;;15.63;;
32810;SDS011;65470;47.324;8.548;2023-02-22T07:18:11;30.00;;;16.73;;
32810;SDS011;65470;47.324;8.548;2023-02-22T07:20:38;28.48;;;16.40;;
32810;SDS011;65470;47.324;8.548;2023-02-22T07:23:04;21.50;;;15.68;;
32810;SDS011;65470;47.324;8.548;2023-02-22T07:25:30;32.97;;;15.75;;
32810;SDS011;65470;47.324;8.548;2023-02-22T07:27:55;24.10;;;15.50;;
32810;SDS011;65470;47.324;8.548;2023-02-22T07:30:22;24.25;;;14.07;;
32810;SDS011;65470;47.324;8.548;2023-02-22T07:32:55;22.25;;;14.38;;
32810;SDS011;65470;47.324;8.548;2023-02-22T07:37:52;16.48;;;11.35;;
32810;SDS011;65470;47.324;8.548;2023-02-22T07:40:18;17.30;;;13.38;;
32810;SDS011;65470;47.324;8.548;2023-02-22T07:43:00;21.55;;;12.95;;
32810;SDS011;65470;47.324;8.548;2023-02-22T07:45:46;17.50;;;12.45;;
32810;SDS011;65470;47.324;8.548;2023-02-22T07:48:14;25.23;;;13.85;;
32810;SDS011;65470;47.324;8.548;2023-02-22T07:50:40;24.10;;;12.95;;
32810;SDS011;65470;47.324;8.548;2023-02-22T07:53:09;16.27;;;12.40;;
32810;SDS011;65470;47.324;8.548;2023-02-22T07:55:37;21.27;;;12.38;;
32810;SDS011;65470;47.324;8.548;2023-02-22T07:58:04;15.00;;;11.05;;
32810;SDS011;65470;47.324;8.548;2023-02-22T08:00:33;15.27;;;11.18;;
32810;SDS011;65470;47.324;8.548;2023-02-22T08:03:04;14.07;;;11.23;;
32810;SDS011;65470;47.324;8.548;2023-02-22T08:05:32;13.07;;;11.68;;
32810;SDS011;65470;47.324;8.548;2023-02-22T08:07:58;12.93;;;10.65;;
32810;SDS011;65470;47.324;8.548;2023-02-22T08:10:24;16.42;;;10.27;;
32810;SDS011;65470;47.324;8.548;2023-02-22T08:12:51;14.40;;;9.57;;
32810;SDS011;65470;47.324;8.548;2023-02-22T08:15:21;11.60;;;10.20;;
32810;SDS011;65470;47.324;8.548;2023-02-22T08:17:53;10.63;;;9.45;;
32810;SDS011;65470;47.324;8.548;2023-02-22T08:20:19;15.98;;;10.18;;
32810;SDS011;65470;47.324;8.548;2023-02-22T08:22:46;11.68;;;9.00;;
32810;SDS011;65470;47.324;8.548;2023-02-22T08:25:13;12.48;;;9.35;;
32810;SDS011;65470;47.324;8.548;2023-02-22T08:27:40;14.02;;;10.20;;
32810;SDS011;65470;47.324;8.548;2023-02-22T08:30:07;14.75;;;9.85;;
32810;SDS011;65470;47.324;8.548;2023-02-22T08:32:33;11.52;;;9.93;;
32810;SDS011;65470;47.324;8.548;2023-02-22T08:34:59;11.50;;;9.93;;
32810;SDS011;65470;47.324;8.548;2023-02-22T08:37:26;12.60;;;10.88;;
32810;SDS011;65470;47.324;8.548;2023-02-22T08:39:52;14.40;;;9.95;;
32810;SDS011;65470;47.324;8.548;2023-02-22T08:42:18;10.88;;;9.60;;
32810;SDS011;65470;47.324;8.548;2023-02-22T08:44:43;13.13;;;9.80;;
32810;SDS011;65470;47.324;8.548;2023-02-22T08:47:09;13.13;;;10.25;;
32810;SDS011;65470;47.324;8.548;2023-02-22T08:49:35;16.60;;;10.10;;
32810;SDS011;65470;47.324;8.548;2023-02-22T08:52:00;13.30;;;10.70;;
32810;SDS011;65470;47.324;8.548;2023-02-22T08:54:26;12.10;;;10.57;;
32810;SDS011;65470;47.324;8.548;2023-02-22T08:56:52;12.75;;;9.45;;
32810;SDS011;65470;47.324;8.548;2023-02-22T08:59:17;16.40;;;9.85;;
32810;SDS011;65470;47.324;8.548;2023-02-22T09:01:43;11.63;;;9.98;;
32810;SDS011;65470;47.324;8.548;2023-02-22T09:04:09;50.80;;;13.07;;
32810;SDS011;65470;47.324;8.548;2023-02-22T09:06:34;57.53;;;14.27;;
32810;SDS011;65470;47.324;8.548;2023-02-22T09:09:00;13.27;;;10.48;;
32810;SDS011;65470;47.324;8.548;2023-02-22T09:11:26;17.90;;;11.27;;
32810;SDS011;65470;47.324;8.548;2023-02-22T09:13:52;16.17;;;10.40;;
32810;SDS011;65470;47.324;8.548;2023-02-22T09:16:18;16.10;;;10.95;;
32810;SDS011;65470;47.324;8.548;2023-02-22T09:18:43;12.77;;;9.95;;
32810;SDS011;65470;47.324;8.548;2023-02-22T09:21:10;12.10;;;10.80;;
32810;SDS011;65470;47.324;8.548;2023-02-22T09:23:36;13.65;;;10.95;;
32810;SDS011;65470;47.324;8.548;2023-02-22T09:26:01;12.45;;;10.50;;
32810;SDS011;65470;47.324;8.548;2023-02-22T09:28:27;13.60;;;9.30;;
32810;SDS011;65470;47.324;8.548;2023-02-22T09:30:53;12.23;;;9.43;;
32810;SDS011;65470;47.324;8.548;2023-02-22T09:33:20;13.52;;;9.90;;
32810;SDS011;65470;47.324;8.548;2023-02-22T09:35:47;10.70;;;9.60;;
32810;SDS011;65470;47.324;8.548;2023-02-22T09:38:18;13.32;;;9.73;;
32810;SDS011;65470;47.324;8.548;2023-02-22T09:40:54;11.63;;;9.88;;
32810;SDS011;65470;47.324;8.548;2023-02-22T09:43:40;12.20;;;10.40;;
32810;SDS011;65470;47.324;8.548;2023-02-22T09:46:29;15.65;;;11.00;;
32810;SDS011;65470;47.324;8.548;2023-02-22T09:49:08;10.43;;;9.27;;
32810;SDS011;65470;47.324;8.548;2023-02-22T09:51:51;14.00;;;10.98;;
32810;SDS011;65470;47.324;8.548;2023-02-22T09:54:20;11.60;;;9.40;;
32810;SDS011;65470;47.324;8.548;2023-02-22T09:56:59;12.30;;;8.75;;
32810;SDS011;65470;47.324;8.548;2023-02-22T09:59:29;10.73;;;9.50;;
32810;SDS011;65470;47.324;8.548;2023-02-22T10:02:22;13.35;;;8.85;;
32810;SDS011;65470;47.324;8.548;2023-02-22T10:07:57;13.75;;;9.50;;
32810;SDS011;65470;47.324;8.548;2023-02-22T10:10:31;8.23;;;7.07;;
32810;SDS011;65470;47.324;8.548;2023-02-22T10:15:33;9.30;;;8.40;;
32810;SDS011;65470;47.324;8.548;2023-02-22T10:18:16;11.40;;;9.60;;
32810;SDS011;65470;47.324;8.548;2023-02-22T10:26:27;10.77;;;7.65;;
32810;SDS011;65470;47.324;8.548;2023-02-22T10:29:04;54.55;;;10.95;;
32810;SDS011;65470;47.324;8.548;2023-02-22T10:31:59;20.80;;;8.50;;
32810;SDS011;65470;47.324;8.548;2023-02-22T10:34:47;18.20;;;8.05;;
32810;SDS011;65470;47.324;8.548;2023-02-22T10:37:23;15.13;;;8.27;;
32810;SDS011;65470;47.324;8.548;2023-02-22T10:40:24;24.70;;;8.95;;
32810;SDS011;65470;47.324;8.548;2023-02-22T10:42:46;10.80;;;7.07;;
32810;SDS011;65470;47.324;8.548;2023-02-22T10:45:20;17.20;;;8.50;;
32810;SDS011;65470;47.324;8.548;2023-02-22T10:47:50;11.43;;;7.10;;
32810;SDS011;65470;47.324;8.548;2023-02-22T10:50:19;14.20;;;8.55;;
32810;SDS011;65470;47.324;8.548;2023-02-22T10:52:46;10.20;;;8.05;;
32810;SDS011;65470;47.324;8.548;2023-02-22T10:55:13;13.48;;;7.43;;
32810;SDS011;65470;47.324;8.548;2023-02-22T10:57:39;14.25;;;10.07;;
32810;SDS011;65470;47.324;8.548;2023-02-22T11:00:18;12.02;;;8.40;;
32810;SDS011;65470;47.324;8.548;2023-02-22T11:05:43;8.65;;;6.20;;
32810;SDS011;65470;47.324;8.548;2023-02-22T11:10:46;14.90;;;7.57;;
32810;SDS011;65470;47.324;8.548;2023-02-22T11:13:17;10.60;;;9.05;;
32810;SDS011;65470;47.324;8.548;2023-02-22T11:15:53;15.30;;;9.52;;
32810;SDS011;65470;47.324;8.548;2023-02-22T11:18:33;10.82;;;7.97;;
32810;SDS011;65470;47.324;8.548;2023-02-22T11:21:06;11.80;;;8.52;;
32810;SDS011;65470;47.324;8.548;2023-02-22T11:23:36;13.43;;;8.90;;
32810;SDS011;65470;47.324;8.548;2023-02-22T11:26:07;16.17;;;9.15;;
32810;SDS011;65470;47.324;8.548;2023-02-22T11:28:47;14.95;;;10.30;;
32810;SDS011;65470;47.324;8.548;2023-02-22T11:31:26;17.23;;;10.32;;
32810;SDS011;65470;47.324;8.548;2023-02-22T11:33:57;18.98;;;12.18;;
32810;SDS011;65470;47.324;8.548;2023-02-22T11:36:42;14.40;;;11.98;;
32810;SDS011;65470;47.324;8.548;2023-02-22T11:39:21;12.75;;;11.25;;
32810;SDS011;65470;47.324;8.548;2023-02-22T11:41:50;11.82;;;10.27;;
32810;SDS011;65470;47.324;8.548;2023-02-22T11:44:21;14.73;;;11.73;;
32810;SDS011;65470;47.324;8.548;2023-02-22T11:46:55;15.88;;;12.50;;
32810;SDS011;65470;47.324;8.548;2023-02-22T11:49:34;16.58;;;13.98;;
32810;SDS011;65470;47.324;8.548;2023-02-22T11:52:13;16.25;;;14.60;;
32810;SDS011;65470;47.324;8.548;2023-02-22T12:02:46;16.92;;;12.32;;
32810;SDS011;65470;47.324;8.548;2023-02-22T12:19:38;24.27;;;16.63;;
32810;SDS011;65470;47.324;8.548;2023-02-22T12:22:09;25.25;;;15.98;;
32810;SDS011;65470;47.324;8.548;2023-02-22T12:24:45;21.90;;;14.93;;
32810;SDS011;65470;47.324;8.548;2023-02-22T12:27:25;17.90;;;15.15;;
32810;SDS011;65470;47.324;8.548;2023-02-22T12:30:02;20.35;;;15.75;;
32810;SDS011;65470;47.324;8.548;2023-02-22T12:32:38;21.27;;;15.73;;
32810;SDS011;65470;47.324;8.548;2023-02-22T12:37:59;17.75;;;14.48;;
32810;SDS011;65470;47.324;8.548;2023-02-22T12:40:29;20.45;;;15.60;;
32810;SDS011;65470;47.324;8.548;2023-02-22T12:43:18;17.60;;;14.70;;
32810;SDS011;65470;47.324;8.548;2023-02-22T12:45:51;17.92;;;15.68;;
32810;SDS011;65470;47.324;8.548;2023-02-22T12:48:42;18.92;;;16.55;;
32810;SDS011;65470;47.324;8.548;2023-02-22T12:51:20;23.05;;;16.48;;
32810;SDS011;65470;47.324;8.548;2023-02-22T12:54:19;19.92;;;16.45;;
32810;SDS011;65470;47.324;8.548;2023-02-22T12:57:46;18.42;;;15.77;;
32810;SDS011;65470;47.324;8.548;2023-02-22T13:00:18;19.25;;;16.52;;
32810;SDS011;65470;47.324;8.548;2023-02-22T13:03:17;19.27;;;16.48;;
32810;SDS011;65470;47.324;8.548;2023-02-22T13:06:13;23.77;;;16.83;;
32810;SDS011;65470;47.324;8.548;2023-02-22T13:27:44;19.42;;;15.77;;
32810;SDS011;65470;47.324;8.548;2023-02-22T13:30:34;22.02;;;15.05;;
32810;SDS011;65470;47.324;8.548;2023-02-22T13:36:00;17.90;;;16.10;;
32810;SDS011;65470;47.324;8.548;2023-02-22T13:44:26;17.38;;;15.48;;
32810;SDS011;65470;47.324;8.548;2023-02-22T13:52:59;18.58;;;15.88;;
32810;SDS011;65470;47.324;8.548;2023-02-22T13:55:30;18.83;;;16.23;;
32810;SDS011;65470;47.324;8.548;2023-02-22T13:58:05;18.63;;;15.23;;
32810;SDS011;65470;47.324;8.548;2023-02-22T14:08:05;27.77;;;16.48;;
32810;SDS011;65470;47.324;8.548;2023-02-22T14:10:50;17.63;;;15.68;;
32810;SDS011;65470;47.324;8.548;2023-02-22T14:13:19;21.70;;;15.55;;
32810;SDS011;65470;47.324;8.548;2023-02-22T14:18:25;28.02;;;17.25;;
32810;SDS011;65470;47.324;8.548;2023-02-22T14:21:04;18.33;;;15.85;;
32810;SDS011;65470;47.324;8.548;2023-02-22T14:28:39;16.85;;;15.18;;
32810;SDS011;65470;47.324;8.548;2023-02-22T14:31:20;18.25;;;14.45;;
32810;SDS011;65470;47.324;8.548;2023-02-22T14:36:34;34.55;;;15.85;;
32810;SDS011;65470;47.324;8.548;2023-02-22T14:39:39;20.38;;;13.65;;
32810;SDS011;65470;47.324;8.548;2023-02-22T14:42:35;18.70;;;13.52;;
32810;SDS011;65470;47.324;8.548;2023-02-22T14:50:35;20.42;;;14.15;;
32810;SDS011;65470;47.324;8.548;2023-02-22T14:53:13;20.17;;;15.00;;
32810;SDS011;65470;47.324;8.548;2023-02-22T14:56:06;24.92;;;17.58;;
32810;SDS011;65470;47.324;8.548;2023-02-22T14:58:42;19.55;;;16.55;;
32810;SDS011;65470;47.324;8.548;2023-02-22T15:03:47;18.20;;;14.93;;
32810;SDS011;65470;47.324;8.548;2023-02-22T15:06:15;21.02;;;15.68;;
32810;SDS011;65470;47.324;8.548;2023-02-22T15:08:43;19.98;;;15.38;;
32810;SDS011;65470;47.324;8.548;2023-02-22T15:11:26;18.98;;;15.43;;
32810;SDS011;65470;47.324;8.548;2023-02-22T15:13:57;20.55;;;15.02;;
32810;SDS011;65470;47.324;8.548;2023-02-22T15:16:24;22.00;;;16.08;;
32810;SDS011;65470;47.324;8.548;2023-02-22T15:18:53;17.92;;;16.05;;
32810;SDS011;65470;47.324;8.548;2023-02-22T15:21:25;19.13;;;14.63;;
32810;SDS011;65470;47.324;8.548;2023-02-22T15:24:05;23.10;;;15.07;;
32810;SDS011;65470;47.324;8.548;2023-02-22T15:29:17;20.60;;;15.05;;
32810;SDS011;65470;47.324;8.548;2023-02-22T15:31:48;22.15;;;16.20;;
32810;SDS011;65470;47.324;8.548;2023-02-22T15:36:48;23.23;;;16.90;;
32810;SDS011;65470;47.324;8.548;2023-02-22T15:39:25;19.73;;;15.43;;
32810;SDS011;65470;47.324;8.548;2023-02-22T15:42:00;21.85;;;17.02;;
32810;SDS011;65470;47.324;8.548;2023-02-22T15:44:45;21.83;;;17.65;;
32810;SDS011;65470;47.324;8.548;2023-02-22T15:47:16;20.42;;;17.10;;
32810;SDS011;65470;47.324;8.548;2023-02-22T15:49:42;21.90;;;18.02;;
32810;SDS011;65470;47.324;8.548;2023-02-22T15:52:13;24.45;;;16.45;;
32810;SDS011;65470;47.324;8.548;2023-02-22T15:54:45;20.30;;;16.67;;
32810;SDS011;65470;47.324;8.548;2023-02-22T15:57:14;21.35;;;17.63;;
32810;SDS011;65470;47.324;8.548;2023-02-22T15:59:43;21.25;;;18.00;;
32810;SDS011;65470;47.324;8.548;2023-02-22T16:05:07;24.63;;;18.88;;
32810;SDS011;65470;47.324;8.548;2023-02-22T16:07:40;21.30;;;19.05;;
32810;SDS011;65470;47.324;8.548;2023-02-22T16:10:20;25.27;;;19.98;;
32810;SDS011;65470;47.324;8.548;2023-02-22T16:12:48;34.38;;;19.83;;
32810;SDS011;65470;47.324;8.548;2023-02-22T16:15:15;24.33;;;18.38;;
32810;SDS011;65470;47.324;8.548;2023-02-22T16:17:43;26.38;;;19.25;;
32810;SDS011;65470;47.324;8.548;2023-02-22T16:22:39;26.40;;;18.85;;
32810;SDS011;65470;47.324;8.548;2023-02-22T16:27:43;24.15;;;19.92;;
32810;SDS011;65470;47.324;8.548;2023-02-22T16:30:21;25.88;;;20.67;;
32810;SDS011;65470;47.324;8.548;2023-02-22T16:33:05;26.42;;;18.85;;
32810;SDS011;65470;47.324;8.548;2023-02-22T16:35:41;25.30;;;19.02;;
32810;SDS011;65470;47.324;8.548;2023-02-22T16:38:15;28.70;;;19.23;;
32810;SDS011;65470;47.324;8.548;2023-02-22T16:43:16;28.38;;;20.65;;
32810;SDS011;65470;47.324;8.548;2023-02-22T16:45:43;23.38;;;20.13;;
32810;SDS011;65470;47.324;8.548;2023-02-22T16:50:46;31.13;;;20.75;;
32810;SDS011;65470;47.324;8.548;2023-02-22T16:53:12;28.10;;;20.45;;
32810;SDS011;65470;47.324;8.548;2023-02-22T16:55:43;22.17;;;19.85;;
32810;SDS011;65470;47.324;8.548;2023-02-22T16:58:08;31.48;;;19.65;;
32810;SDS011;65470;47.324;8.548;2023-02-22T17:00:36;26.70;;;20.40;;
32810;SDS011;65470;47.324;8.548;2023-02-22T17:03:02;25.60;;;21.70;;
32810;SDS011;65470;47.324;8.548;2023-02-22T17:05:32;27.98;;;20.05;;
32810;SDS011;65470;47.324;8.548;2023-02-22T17:08:01;24.83;;;19.85;;
32810;SDS011;65470;47.324;8.548;2023-02-22T17:10:27;25.55;;;19.27;;
32810;SDS011;65470;47.324;8.548;2023-02-22T17:12:53;25.75;;;19.00;;
32810;SDS011;65470;47.324;8.548;2023-02-22T17:15:29;25.42;;;19.08;;